sensor_id;sensor_type;location;lat;lon;timestamp;temperature;humidity
49124;DHT22;48506;48.202;16.274;2023-11-19T00:00:58;3.90;96.50
49124;DHT22;48506;48.202;16.274;2023-11-19T00:03:24;3.90;96.60
49124;DHT22;48506;48.202;16.274;2023-11-19T00:05:49;3.90;96.40
49124;DHT22;48506;48.202;16.274;2023-11-19T00:08:16;4.00;96.50
49124;DHT22;48506;48.202;16.274;2023-11-19T00:10:42;4.00;96.60
49124;DHT22;48506;48.202;16.274;2023-11-19T00:13:08;3.90;96.40
49124;DHT22;48506;48.202;16.274;2023-11-19T00:15:36;3.90;96.60
49124;DHT22;48506;48.202;16.274;2023-11-19T00:18:02;4.00;96.60
49124;DHT22;48506;48.202;16.274;2023-11-19T00:20:30;4.00;96.60
49124;DHT22;48506;48.202;16.274;2023-11-19T00:22:56;3.90;96.50
49124;DHT22;48506;48.202;16.274;2023-11-19T00:25:22;3.90;96.60
49124;DHT22;48506;48.202;16.274;2023-11-19T00:27:48;3.90;96.80
49124;DHT22;48506;48.202;16.274;2023-11-19T00:30:14;3.90;96.80
49124;DHT22;48506;48.202;16.274;2023-11-19T00:32:41;4.00;96.80
49124;DHT22;48506;48.202;16.274;2023-11-19T00:35:08;4.00;96.90
49124;DHT22;48506;48.202;16.274;2023-11-19T00:37:36;4.00;96.80
49124;DHT22;48506;48.202;16.274;2023-11-19T00:40:02;4.00;96.70
49124;DHT22;48506;48.202;16.274;2023-11-19T00:42:31;4.10;97.00
49124;DHT22;48506;48.202;16.274;2023-11-19T00:44:57;4.20;97.00
49124;DHT22;48506;48.202;16.274;2023-11-19T00:47:23;4.20;96.90
49124;DHT22;48506;48.202;16.274;2023-11-19T00:49:50;4.20;96.70
49124;DHT22;48506;48.202;16.274;2023-11-19T00:52:17;4.20;96.70
49124;DHT22;48506;48.202;16.274;2023-11-19T00:54:43;4.20;96.70
49124;DHT22;48506;48.202;16.274;2023-11-19T00:57:10;4.30;96.70
49124;DHT22;48506;48.202;16.274;2023-11-19T00:59:36;4.20;96.70
49124;DHT22;48506;48.202;16.274;2023-11-19T01:02:01;4.30;96.80
49124;DHT22;48506;48.202;16.274;2023-11-19T01:04:37;4.30;97.00
49124;DHT22;48506;48.202;16.274;2023-11-19T01:07:05;4.30;97.00
49124;DHT22;48506;48.202;16.274;2023-11-19T01:09:32;4.40;97.10
49124;DHT22;48506;48.202;16.274;2023-11-19T01:12:01;4.40;96.90
49124;DHT22;48506;48.202;16.274;2023-11-19T01:14:28;4.50;96.60
49124;DHT22;48506;48.202;16.274;2023-11-19T01:16:55;4.50;96.60
49124;DHT22;48506;48.202;16.274;2023-11-19T01:19:22;4.60;97.00
49124;DHT22;48506;48.202;16.274;2023-11-19T01:21:49;4.60;97.00
49124;DHT22;48506;48.202;16.274;2023-11-19T01:24:15;4.70;97.00
49124;DHT22;48506;48.202;16.274;2023-11-19T01:26:42;4.70;96.90
49124;DHT22;48506;48.202;16.274;2023-11-19T01:29:14;4.70;96.80
49124;DHT22;48506;48.202;16.274;2023-11-19T01:31:42;4.70;96.70
49124;DHT22;48506;48.202;16.274;2023-11-19T01:34:08;4.80;96.80
49124;DHT22;48506;48.202;16.274;2023-11-19T01:36:34;4.80;96.90
49124;DHT22;48506;48.202;16.274;2023-11-19T01:39:00;4.80;96.80
49124;DHT22;48506;48.202;16.274;2023-11-19T01:41:26;4.80;96.70
49124;DHT22;48506;48.202;16.274;2023-11-19T01:43:52;4.80;96.70
49124;DHT22;48506;48.202;16.274;2023-11-19T01:46:20;4.80;96.70
49124;DHT22;48506;48.202;16.274;2023-11-19T01:48:47;4.80;96.50
49124;DHT22;48506;48.202;16.274;2023-11-19T01:51:13;4.70;96.60
49124;DHT22;48506;48.202;16.274;2023-11-19T01:53:43;4.60;96.70
49124;DHT22;48506;48.202;16.274;2023-11-19T01:56:11;4.60;96.70
49124;DHT22;48506;48.202;16.274;2023-11-19T01:58:40;4.50;96.80
49124;DHT22;48506;48.202;16.274;2023-11-19T02:01:07;4.50;96.80
49124;DHT22;48506;48.202;16.274;2023-11-19T02:03:34;4.50;97.00
49124;DHT22;48506;48.202;16.274;2023-11-19T02:06:00;4.40;96.90
49124;DHT22;48506;48.202;16.274;2023-11-19T02:08:27;4.40;97.00
49124;DHT22;48506;48.202;16.274;2023-11-19T02:10:53;4.40;96.90
49124;DHT22;48506;48.202;16.274;2023-11-19T02:13:24;4.40;97.00
49124;DHT22;48506;48.202;16.274;2023-11-19T02:15:51;4.40;97.10
49124;DHT22;48506;48.202;16.274;2023-11-19T02:20:45;4.40;97.10
49124;DHT22;48506;48.202;16.274;2023-11-19T02:23:13;4.50;97.40
49124;DHT22;48506;48.202;16.274;2023-11-19T02:25:40;4.50;97.50
49124;DHT22;48506;48.202;16.274;2023-11-19T02:28:07;4.60;97.60
49124;DHT22;48506;48.202;16.274;2023-11-19T02:30:34;4.60;98.00
49124;DHT22;48506;48.202;16.274;2023-11-19T02:33:00;4.60;97.80
49124;DHT22;48506;48.202;16.274;2023-11-19T02:35:31;4.60;97.80
49124;DHT22;48506;48.202;16.274;2023-11-19T02:37:58;4.70;98.00
49124;DHT22;48506;48.202;16.274;2023-11-19T02:40:29;4.70;98.10
49124;DHT22;48506;48.202;16.274;2023-11-19T02:42:55;4.70;98.20
49124;DHT22;48506;48.202;16.274;2023-11-19T02:45:25;4.60;98.30
49124;DHT22;48506;48.202;16.274;2023-11-19T02:47:52;4.60;98.40
49124;DHT22;48506;48.202;16.274;2023-11-19T02:50:19;4.70;98.70
49124;DHT22;48506;48.202;16.274;2023-11-19T02:52:52;4.70;98.80
49124;DHT22;48506;48.202;16.274;2023-11-19T02:55:19;4.70;98.90
49124;DHT22;48506;48.202;16.274;2023-11-19T02:57:46;4.70;98.90
49124;DHT22;48506;48.202;16.274;2023-11-19T03:00:19;4.70;98.90
49124;DHT22;48506;48.202;16.274;2023-11-19T03:02:50;4.70;99.00
49124;DHT22;48506;48.202;16.274;2023-11-19T03:05:26;4.70;99.10
49124;DHT22;48506;48.202;16.274;2023-11-19T03:07:56;4.70;99.20
49124;DHT22;48506;48.202;16.274;2023-11-19T03:10:23;4.70;99.20
49124;DHT22;48506;48.202;16.274;2023-11-19T03:12:50;4.60;99.20
49124;DHT22;48506;48.202;16.274;2023-11-19T03:15:16;4.70;99.50
49124;DHT22;48506;48.202;16.274;2023-11-19T03:17:43;4.70;99.50
49124;DHT22;48506;48.202;16.274;2023-11-19T03:20:10;4.70;99.60
49124;DHT22;48506;48.202;16.274;2023-11-19T03:22:43;4.70;99.60
49124;DHT22;48506;48.202;16.274;2023-11-19T03:25:10;4.70;99.80
49124;DHT22;48506;48.202;16.274;2023-11-19T03:27:37;4.80;99.70
49124;DHT22;48506;48.202;16.274;2023-11-19T03:30:08;4.80;99.80
49124;DHT22;48506;48.202;16.274;2023-11-19T03:32:37;4.80;99.80
49124;DHT22;48506;48.202;16.274;2023-11-19T03:35:05;4.80;99.90
49124;DHT22;48506;48.202;16.274;2023-11-19T03:37:35;4.80;99.90
49124;DHT22;48506;48.202;16.274;2023-11-19T03:40:02;4.90;99.90
49124;DHT22;48506;48.202;16.274;2023-11-19T03:42:29;4.90;99.90
49124;DHT22;48506;48.202;16.274;2023-11-19T03:44:58;4.90;99.90
49124;DHT22;48506;48.202;16.274;2023-11-19T03:47:24;5.00;99.90
49124;DHT22;48506;48.202;16.274;2023-11-19T03:49:51;5.00;99.90
49124;DHT22;48506;48.202;16.274;2023-11-19T03:52:18;5.00;99.90
49124;DHT22;48506;48.202;16.274;2023-11-19T03:54:45;5.00;99.90
49124;DHT22;48506;48.202;16.274;2023-11-19T03:57:12;5.10;99.90
49124;DHT22;48506;48.202;16.274;2023-11-19T03:59:38;5.10;99.90
49124;DHT22;48506;48.202;16.274;2023-11-19T04:02:04;5.10;99.90
49124;DHT22;48506;48.202;16.274;2023-11-19T04:04:30;5.10;99.90
49124;DHT22;48506;48.202;16.274;2023-11-19T04:06:56;5.10;99.90
49124;DHT22;48506;48.202;16.274;2023-11-19T04:09:23;5.10;99.90
49124;DHT22;48506;48.202;16.274;2023-11-19T04:11:49;5.20;99.90
49124;DHT22;48506;48.202;16.274;2023-11-19T04:14:15;5.20;99.90
49124;DHT22;48506;48.202;16.274;2023-11-19T04:16:44;5.20;99.90
49124;DHT22;48506;48.202;16.274;2023-11-19T04:19:11;5.20;99.90
49124;DHT22;48506;48.202;16.274;2023-11-19T04:21:40;5.20;99.90
49124;DHT22;48506;48.202;16.274;2023-11-19T04:24:10;5.20;99.90
49124;DHT22;48506;48.202;16.274;2023-11-19T04:26:45;5.30;99.90
49124;DHT22;48506;48.202;16.274;2023-11-19T04:29:12;5.30;99.90
49124;DHT22;48506;48.202;16.274;2023-11-19T04:31:39;5.20;99.90
49124;DHT22;48506;48.202;16.274;2023-11-19T04:34:06;5.30;99.90
49124;DHT22;48506;48.202;16.274;2023-11-19T04:36:33;5.20;99.90
49124;DHT22;48506;48.202;16.274;2023-11-19T04:39:02;5.20;99.90
49124;DHT22;48506;48.202;16.274;2023-11-19T04:41:28;5.30;99.90
49124;DHT22;48506;48.202;16.274;2023-11-19T04:43:55;5.20;99.90
49124;DHT22;48506;48.202;16.274;2023-11-19T04:46:21;5.20;99.90
49124;DHT22;48506;48.202;16.274;2023-11-19T04:48:46;5.30;99.90
49124;DHT22;48506;48.202;16.274;2023-11-19T04:51:13;5.30;99.90
49124;DHT22;48506;48.202;16.274;2023-11-19T04:53:39;5.30;99.90
49124;DHT22;48506;48.202;16.274;2023-11-19T04:56:09;5.30;99.90
49124;DHT22;48506;48.202;16.274;2023-11-19T04:58:35;5.40;99.90
49124;DHT22;48506;48.202;16.274;2023-11-19T05:01:01;5.40;99.90
49124;DHT22;48506;48.202;16.274;2023-11-19T05:03:30;5.30;99.90
49124;DHT22;48506;48.202;16.274;2023-11-19T05:05:57;5.30;99.90
49124;DHT22;48506;48.202;16.274;2023-11-19T05:08:24;5.30;99.90
49124;DHT22;48506;48.202;16.274;2023-11-19T05:10:50;5.30;99.90
49124;DHT22;48506;48.202;16.274;2023-11-19T05:13:16;5.30;99.90
49124;DHT22;48506;48.202;16.274;2023-11-19T05:15:43;5.30;99.90
49124;DHT22;48506;48.202;16.274;2023-11-19T05:18:09;5.30;99.90
49124;DHT22;48506;48.202;16.274;2023-11-19T05:20:35;5.30;99.90
49124;DHT22;48506;48.202;16.274;2023-11-19T05:23:01;5.30;99.90
49124;DHT22;48506;48.202;16.274;2023-11-19T05:25:27;5.30;99.90
49124;DHT22;48506;48.202;16.274;2023-11-19T05:27:53;5.30;99.90
49124;DHT22;48506;48.202;16.274;2023-11-19T05:30:19;5.40;99.90
49124;DHT22;48506;48.202;16.274;2023-11-19T05:32:45;5.40;99.90
49124;DHT22;48506;48.202;16.274;2023-11-19T05:35:12;5.40;99.90
49124;DHT22;48506;48.202;16.274;2023-11-19T05:37:39;5.40;99.90
49124;DHT22;48506;48.202;16.274;2023-11-19T05:40:06;5.40;99.90
49124;DHT22;48506;48.202;16.274;2023-11-19T05:42:42;5.50;99.90
49124;DHT22;48506;48.202;16.274;2023-11-19T05:45:11;5.40;99.90
49124;DHT22;48506;48.202;16.274;2023-11-19T05:47:37;5.40;99.90
49124;DHT22;48506;48.202;16.274;2023-11-19T05:50:03;5.40;99.90
49124;DHT22;48506;48.202;16.274;2023-11-19T05:52:31;5.40;99.90
49124;DHT22;48506;48.202;16.274;2023-11-19T05:55:02;5.40;99.90
49124;DHT22;48506;48.202;16.274;2023-11-19T05:57:38;5.40;99.90
49124;DHT22;48506;48.202;16.274;2023-11-19T06:00:06;5.40;99.90
49124;DHT22;48506;48.202;16.274;2023-11-19T06:02:34;5.40;99.90
49124;DHT22;48506;48.202;16.274;2023-11-19T06:05:00;5.40;99.90
49124;DHT22;48506;48.202;16.274;2023-11-19T06:07:27;5.40;99.90
49124;DHT22;48506;48.202;16.274;2023-11-19T06:09:54;5.40;99.90
49124;DHT22;48506;48.202;16.274;2023-11-19T06:12:20;5.30;99.90
49124;DHT22;48506;48.202;16.274;2023-11-19T06:14:46;5.40;99.90
49124;DHT22;48506;48.202;16.274;2023-11-19T06:17:11;5.40;99.90
49124;DHT22;48506;48.202;16.274;2023-11-19T06:19:38;5.40;99.90
49124;DHT22;48506;48.202;16.274;2023-11-19T06:22:04;5.40;99.90
49124;DHT22;48506;48.202;16.274;2023-11-19T06:24:31;5.40;99.90
49124;DHT22;48506;48.202;16.274;2023-11-19T06:26:57;5.40;99.90
49124;DHT22;48506;48.202;16.274;2023-11-19T06:29:23;5.40;99.90
49124;DHT22;48506;48.202;16.274;2023-11-19T06:31:51;5.40;99.90
49124;DHT22;48506;48.202;16.274;2023-11-19T06:34:17;5.40;99.90
49124;DHT22;48506;48.202;16.274;2023-11-19T06:36:44;5.40;99.90
49124;DHT22;48506;48.202;16.274;2023-11-19T06:39:10;5.40;99.90
49124;DHT22;48506;48.202;16.274;2023-11-19T06:41:42;5.50;99.90
49124;DHT22;48506;48.202;16.274;2023-11-19T06:44:10;5.50;99.90
49124;DHT22;48506;48.202;16.274;2023-11-19T06:46:36;5.50;99.90
49124;DHT22;48506;48.202;16.274;2023-11-19T06:49:02;5.40;99.90
49124;DHT22;48506;48.202;16.274;2023-11-19T06:51:28;5.50;99.90
49124;DHT22;48506;48.202;16.274;2023-11-19T06:53:55;5.50;99.90
49124;DHT22;48506;48.202;16.274;2023-11-19T06:56:23;5.50;99.90
49124;DHT22;48506;48.202;16.274;2023-11-19T06:58:51;5.50;99.90
49124;DHT22;48506;48.202;16.274;2023-11-19T07:01:18;5.50;99.90
49124;DHT22;48506;48.202;16.274;2023-11-19T07:03:45;5.50;99.90
49124;DHT22;48506;48.202;16.274;2023-11-19T07:06:12;5.50;99.90
49124;DHT22;48506;48.202;16.274;2023-11-19T07:08:44;5.50;99.90
49124;DHT22;48506;48.202;16.274;2023-11-19T07:11:13;5.60;99.90
49124;DHT22;48506;48.202;16.274;2023-11-19T07:13:43;5.50;99.90
49124;DHT22;48506;48.202;16.274;2023-11-19T07:16:09;5.60;99.90
49124;DHT22;48506;48.202;16.274;2023-11-19T07:18:37;5.60;99.90
49124;DHT22;48506;48.202;16.274;2023-11-19T07:21:04;5.60;99.90
49124;DHT22;48506;48.202;16.274;2023-11-19T07:23:30;5.60;99.90
49124;DHT22;48506;48.202;16.274;2023-11-19T07:25:56;5.60;99.90
49124;DHT22;48506;48.202;16.274;2023-11-19T07:28:23;5.60;99.90
49124;DHT22;48506;48.202;16.274;2023-11-19T07:30:49;5.60;99.90
49124;DHT22;48506;48.202;16.274;2023-11-19T07:33:15;5.60;99.90
49124;DHT22;48506;48.202;16.274;2023-11-19T07:35:42;5.70;99.90
49124;DHT22;48506;48.202;16.274;2023-11-19T07:38:10;5.70;99.90
49124;DHT22;48506;48.202;16.274;2023-11-19T07:40:36;5.70;99.90
49124;DHT22;48506;48.202;16.274;2023-11-19T07:43:02;5.70;99.90
49124;DHT22;48506;48.202;16.274;2023-11-19T07:45:27;5.70;99.90
49124;DHT22;48506;48.202;16.274;2023-11-19T07:47:53;5.80;99.90
49124;DHT22;48506;48.202;16.274;2023-11-19T07:50:20;5.80;99.90
49124;DHT22;48506;48.202;16.274;2023-11-19T07:52:46;5.80;99.90
49124;DHT22;48506;48.202;16.274;2023-11-19T07:55:12;5.90;99.90
49124;DHT22;48506;48.202;16.274;2023-11-19T07:57:39;5.90;99.90
49124;DHT22;48506;48.202;16.274;2023-11-19T08:00:05;5.90;99.90
49124;DHT22;48506;48.202;16.274;2023-11-19T08:02:32;6.00;99.90
49124;DHT22;48506;48.202;16.274;2023-11-19T08:04:58;6.00;99.90
49124;DHT22;48506;48.202;16.274;2023-11-19T08:07:24;6.10;99.90
49124;DHT22;48506;48.202;16.274;2023-11-19T08:09:50;6.10;99.90
49124;DHT22;48506;48.202;16.274;2023-11-19T08:12:16;6.10;99.90
49124;DHT22;48506;48.202;16.274;2023-11-19T08:14:43;6.10;99.90
49124;DHT22;48506;48.202;16.274;2023-11-19T08:17:10;6.20;99.90
49124;DHT22;48506;48.202;16.274;2023-11-19T08:19:36;6.10;99.90
49124;DHT22;48506;48.202;16.274;2023-11-19T08:22:02;6.20;99.90
49124;DHT22;48506;48.202;16.274;2023-11-19T08:24:28;6.20;99.90
49124;DHT22;48506;48.202;16.274;2023-11-19T08:26:54;6.20;99.90
49124;DHT22;48506;48.202;16.274;2023-11-19T08:29:20;6.30;99.90
49124;DHT22;48506;48.202;16.274;2023-11-19T08:31:47;6.30;99.90
49124;DHT22;48506;48.202;16.274;2023-11-19T08:34:13;6.30;99.90
49124;DHT22;48506;48.202;16.274;2023-11-19T08:36:38;6.30;99.90
49124;DHT22;48506;48.202;16.274;2023-11-19T08:39:04;6.30;99.90
49124;DHT22;48506;48.202;16.274;2023-11-19T08:41:30;6.30;99.90
49124;DHT22;48506;48.202;16.274;2023-11-19T08:43:56;6.30;99.90
49124;DHT22;48506;48.202;16.274;2023-11-19T08:46:22;6.30;99.90
49124;DHT22;48506;48.202;16.274;2023-11-19T08:48:49;6.40;99.90
49124;DHT22;48506;48.202;16.274;2023-11-19T08:51:14;6.30;99.90
49124;DHT22;48506;48.202;16.274;2023-11-19T08:53:40;6.40;99.90
49124;DHT22;48506;48.202;16.274;2023-11-19T08:56:07;6.50;99.90
49124;DHT22;48506;48.202;16.274;2023-11-19T08:58:33;6.50;99.90
49124;DHT22;48506;48.202;16.274;2023-11-19T09:00:59;6.50;99.90
49124;DHT22;48506;48.202;16.274;2023-11-19T09:03:26;6.50;99.90
49124;DHT22;48506;48.202;16.274;2023-11-19T09:05:52;6.60;99.90
49124;DHT22;48506;48.202;16.274;2023-11-19T09:08:19;6.60;99.90
49124;DHT22;48506;48.202;16.274;2023-11-19T09:10:44;6.70;99.90
49124;DHT22;48506;48.202;16.274;2023-11-19T09:13:10;6.70;99.90
49124;DHT22;48506;48.202;16.274;2023-11-19T09:15:36;6.80;99.90
49124;DHT22;48506;48.202;16.274;2023-11-19T09:18:02;6.80;99.90
49124;DHT22;48506;48.202;16.274;2023-11-19T09:20:28;6.80;99.90
49124;DHT22;48506;48.202;16.274;2023-11-19T09:22:58;6.90;99.90
49124;DHT22;48506;48.202;16.274;2023-11-19T09:25:24;6.90;99.90
49124;DHT22;48506;48.202;16.274;2023-11-19T09:27:50;6.90;99.90
49124;DHT22;48506;48.202;16.274;2023-11-19T09:30:16;6.90;99.90
49124;DHT22;48506;48.202;16.274;2023-11-19T09:32:42;6.90;99.90
49124;DHT22;48506;48.202;16.274;2023-11-19T09:35:09;7.00;99.90
49124;DHT22;48506;48.202;16.274;2023-11-19T09:37:39;7.00;99.90
49124;DHT22;48506;48.202;16.274;2023-11-19T09:40:07;7.10;99.90
49124;DHT22;48506;48.202;16.274;2023-11-19T09:42:44;7.10;99.90
49124;DHT22;48506;48.202;16.274;2023-11-19T09:45:14;7.10;99.90
49124;DHT22;48506;48.202;16.274;2023-11-19T09:47:46;7.10;99.90
49124;DHT22;48506;48.202;16.274;2023-11-19T09:50:19;7.20;99.90
49124;DHT22;48506;48.202;16.274;2023-11-19T09:52:47;7.20;99.90
49124;DHT22;48506;48.202;16.274;2023-11-19T09:55:14;7.20;99.90
49124;DHT22;48506;48.202;16.274;2023-11-19T09:57:40;7.20;99.90
49124;DHT22;48506;48.202;16.274;2023-11-19T10:00:10;7.30;99.90
49124;DHT22;48506;48.202;16.274;2023-11-19T10:02:39;7.20;99.90
49124;DHT22;48506;48.202;16.274;2023-11-19T10:05:09;7.20;99.90
49124;DHT22;48506;48.202;16.274;2023-11-19T10:07:35;7.20;99.90
49124;DHT22;48506;48.202;16.274;2023-11-19T10:10:03;7.20;99.90
49124;DHT22;48506;48.202;16.274;2023-11-19T10:12:33;7.20;99.90
49124;DHT22;48506;48.202;16.274;2023-11-19T10:14:59;7.30;99.90
49124;DHT22;48506;48.202;16.274;2023-11-19T10:17:29;7.30;99.90
49124;DHT22;48506;48.202;16.274;2023-11-19T10:19:58;7.40;99.90
49124;DHT22;48506;48.202;16.274;2023-11-19T10:22:26;7.50;99.90
49124;DHT22;48506;48.202;16.274;2023-11-19T10:24:53;7.50;99.90
49124;DHT22;48506;48.202;16.274;2023-11-19T10:27:19;7.40;99.90
49124;DHT22;48506;48.202;16.274;2023-11-19T10:29:47;7.40;99.90
49124;DHT22;48506;48.202;16.274;2023-11-19T10:32:14;7.50;99.90
49124;DHT22;48506;48.202;16.274;2023-11-19T10:34:43;7.40;99.90
49124;DHT22;48506;48.202;16.274;2023-11-19T10:37:10;7.40;99.90
49124;DHT22;48506;48.202;16.274;2023-11-19T10:39:55;7.50;99.90
49124;DHT22;48506;48.202;16.274;2023-11-19T10:42:22;7.60;99.90
49124;DHT22;48506;48.202;16.274;2023-11-19T10:44:48;7.60;99.90
49124;DHT22;48506;48.202;16.274;2023-11-19T10:47:14;7.80;99.90
49124;DHT22;48506;48.202;16.274;2023-11-19T10:49:45;7.90;99.90
49124;DHT22;48506;48.202;16.274;2023-11-19T10:52:18;8.00;99.90
49124;DHT22;48506;48.202;16.274;2023-11-19T10:54:51;8.10;99.90
49124;DHT22;48506;48.202;16.274;2023-11-19T10:57:21;8.00;99.90
49124;DHT22;48506;48.202;16.274;2023-11-19T10:59:52;8.00;99.90
49124;DHT22;48506;48.202;16.274;2023-11-19T11:02:21;8.00;99.90
49124;DHT22;48506;48.202;16.274;2023-11-19T11:04:50;7.90;99.90
49124;DHT22;48506;48.202;16.274;2023-11-19T11:07:21;7.90;99.90
49124;DHT22;48506;48.202;16.274;2023-11-19T11:09:52;7.90;99.90
49124;DHT22;48506;48.202;16.274;2023-11-19T11:12:22;8.00;99.90
49124;DHT22;48506;48.202;16.274;2023-11-19T11:14:49;8.00;99.90
49124;DHT22;48506;48.202;16.274;2023-11-19T11:17:18;8.00;99.90
49124;DHT22;48506;48.202;16.274;2023-11-19T11:19:45;8.10;99.90
49124;DHT22;48506;48.202;16.274;2023-11-19T11:22:12;8.10;99.90
49124;DHT22;48506;48.202;16.274;2023-11-19T11:27:43;8.10;99.90
49124;DHT22;48506;48.202;16.274;2023-11-19T11:38:17;8.00;99.90
49124;DHT22;48506;48.202;16.274;2023-11-19T11:41:19;8.00;99.90
49124;DHT22;48506;48.202;16.274;2023-11-19T11:43:49;8.00;99.90
49124;DHT22;48506;48.202;16.274;2023-11-19T11:49:03;8.00;99.90
49124;DHT22;48506;48.202;16.274;2023-11-19T12:02:12;8.00;99.90
49124;DHT22;48506;48.202;16.274;2023-11-19T12:04:43;8.00;99.90
49124;DHT22;48506;48.202;16.274;2023-11-19T12:09:41;8.00;99.90
49124;DHT22;48506;48.202;16.274;2023-11-19T12:15:07;8.10;99.90
49124;DHT22;48506;48.202;16.274;2023-11-19T12:17:48;8.10;99.90
49124;DHT22;48506;48.202;16.274;2023-11-19T12:20:16;8.00;99.90
49124;DHT22;48506;48.202;16.274;2023-11-19T12:22:45;8.10;99.90
49124;DHT22;48506;48.202;16.274;2023-11-19T12:25:13;8.10;99.90
49124;DHT22;48506;48.202;16.274;2023-11-19T12:27:41;8.10;99.90
49124;DHT22;48506;48.202;16.274;2023-11-19T12:30:07;8.20;99.90
49124;DHT22;48506;48.202;16.274;2023-11-19T12:32:45;8.20;99.90
49124;DHT22;48506;48.202;16.274;2023-11-19T12:35:12;8.20;99.90
49124;DHT22;48506;48.202;16.274;2023-11-19T12:37:49;8.20;99.90
49124;DHT22;48506;48.202;16.274;2023-11-19T12:40:17;8.20;99.90
49124;DHT22;48506;48.202;16.274;2023-11-19T12:42:50;8.10;99.90
49124;DHT22;48506;48.202;16.274;2023-11-19T12:45:16;8.10;99.90
49124;DHT22;48506;48.202;16.274;2023-11-19T12:47:46;8.20;99.90
49124;DHT22;48506;48.202;16.274;2023-11-19T12:50:17;8.20;99.90
49124;DHT22;48506;48.202;16.274;2023-11-19T12:52:57;8.30;99.90
49124;DHT22;48506;48.202;16.274;2023-11-19T12:55:26;8.30;99.90
49124;DHT22;48506;48.202;16.274;2023-11-19T12:57:53;8.30;99.90
49124;DHT22;48506;48.202;16.274;2023-11-19T13:00:25;8.20;99.90
49124;DHT22;48506;48.202;16.274;2023-11-19T13:02:56;8.30;99.90
49124;DHT22;48506;48.202;16.274;2023-11-19T13:10:29;8.40;99.90
49124;DHT22;48506;48.202;16.274;2023-11-19T13:13:05;8.50;99.90
49124;DHT22;48506;48.202;16.274;2023-11-19T13:15:33;8.50;99.90
49124;DHT22;48506;48.202;16.274;2023-11-19T13:18:00;8.60;99.90
49124;DHT22;48506;48.202;16.274;2023-11-19T13:20:27;8.60;99.90
49124;DHT22;48506;48.202;16.274;2023-11-19T13:22:54;8.70;99.90
49124;DHT22;48506;48.202;16.274;2023-11-19T13:25:21;8.70;99.90
49124;DHT22;48506;48.202;16.274;2023-11-19T13:27:47;8.70;99.90
49124;DHT22;48506;48.202;16.274;2023-11-19T13:30:13;8.70;99.90
49124;DHT22;48506;48.202;16.274;2023-11-19T13:32:39;8.70;99.90
49124;DHT22;48506;48.202;16.274;2023-11-19T13:35:06;8.70;99.90
49124;DHT22;48506;48.202;16.274;2023-11-19T13:37:34;8.80;99.90
49124;DHT22;48506;48.202;16.274;2023-11-19T13:40:00;8.90;99.90
49124;DHT22;48506;48.202;16.274;2023-11-19T13:42:26;8.90;99.90
49124;DHT22;48506;48.202;16.274;2023-11-19T13:44:53;8.90;99.90
49124;DHT22;48506;48.202;16.274;2023-11-19T13:47:19;9.80;99.90
49124;DHT22;48506;48.202;16.274;2023-11-19T13:49:45;11.80;99.90
49124;DHT22;48506;48.202;16.274;2023-11-19T13:52:11;13.80;99.00
49124;DHT22;48506;48.202;16.274;2023-11-19T13:54:37;14.60;95.70
49124;DHT22;48506;48.202;16.274;2023-11-19T13:57:03;14.10;94.80
49124;DHT22;48506;48.202;16.274;2023-11-19T13:59:32;13.60;95.30
49124;DHT22;48506;48.202;16.274;2023-11-19T14:01:58;12.90;95.90
49124;DHT22;48506;48.202;16.274;2023-11-19T14:04:25;12.30;96.50
49124;DHT22;48506;48.202;16.274;2023-11-19T14:06:52;11.80;97.00
49124;DHT22;48506;48.202;16.274;2023-11-19T14:09:20;11.40;97.50
49124;DHT22;48506;48.202;16.274;2023-11-19T14:11:47;11.00;98.00
49124;DHT22;48506;48.202;16.274;2023-11-19T14:14:14;10.70;98.60
49124;DHT22;48506;48.202;16.274;2023-11-19T14:16:41;10.50;99.10
49124;DHT22;48506;48.202;16.274;2023-11-19T14:19:07;10.40;99.40
49124;DHT22;48506;48.202;16.274;2023-11-19T14:21:34;10.20;99.50
49124;DHT22;48506;48.202;16.274;2023-11-19T14:24:00;10.10;99.80
49124;DHT22;48506;48.202;16.274;2023-11-19T14:26:26;10.00;99.90
49124;DHT22;48506;48.202;16.274;2023-11-19T14:28:52;9.90;99.90
49124;DHT22;48506;48.202;16.274;2023-11-19T14:31:18;9.80;99.90
49124;DHT22;48506;48.202;16.274;2023-11-19T14:33:43;9.80;99.90
49124;DHT22;48506;48.202;16.274;2023-11-19T14:36:10;9.70;99.90
49124;DHT22;48506;48.202;16.274;2023-11-19T14:38:36;9.60;99.90
49124;DHT22;48506;48.202;16.274;2023-11-19T14:41:02;9.60;99.90
49124;DHT22;48506;48.202;16.274;2023-11-19T14:43:28;9.50;99.90
49124;DHT22;48506;48.202;16.274;2023-11-19T14:45:54;9.40;99.90
49124;DHT22;48506;48.202;16.274;2023-11-19T14:48:19;9.40;99.90
49124;DHT22;48506;48.202;16.274;2023-11-19T14:50:45;9.40;99.90
49124;DHT22;48506;48.202;16.274;2023-11-19T14:53:11;9.40;99.90
49124;DHT22;48506;48.202;16.274;2023-11-19T14:55:37;9.40;99.90
49124;DHT22;48506;48.202;16.274;2023-11-19T14:58:03;9.30;99.90
49124;DHT22;48506;48.202;16.274;2023-11-19T15:00:29;9.30;99.90
49124;DHT22;48506;48.202;16.274;2023-11-19T15:02:55;9.30;99.90
49124;DHT22;48506;48.202;16.274;2023-11-19T15:05:22;9.30;99.90
49124;DHT22;48506;48.202;16.274;2023-11-19T15:07:48;9.30;99.90
49124;DHT22;48506;48.202;16.274;2023-11-19T15:10:14;9.20;99.90
49124;DHT22;48506;48.202;16.274;2023-11-19T15:12:40;9.20;99.90
49124;DHT22;48506;48.202;16.274;2023-11-19T15:15:10;9.20;99.90
49124;DHT22;48506;48.202;16.274;2023-11-19T15:17:39;9.20;99.90
49124;DHT22;48506;48.202;16.274;2023-11-19T15:20:06;9.20;99.90
49124;DHT22;48506;48.202;16.274;2023-11-19T15:22:32;9.20;99.90
49124;DHT22;48506;48.202;16.274;2023-11-19T15:24:58;9.10;99.90
49124;DHT22;48506;48.202;16.274;2023-11-19T15:27:24;9.10;99.90
49124;DHT22;48506;48.202;16.274;2023-11-19T15:29:50;9.10;99.90
49124;DHT22;48506;48.202;16.274;2023-11-19T15:32:16;9.00;99.90
49124;DHT22;48506;48.202;16.274;2023-11-19T15:34:43;9.00;99.90
49124;DHT22;48506;48.202;16.274;2023-11-19T15:37:09;8.90;99.90
49124;DHT22;48506;48.202;16.274;2023-11-19T15:39:38;8.90;99.90
49124;DHT22;48506;48.202;16.274;2023-11-19T15:42:04;8.80;99.90
49124;DHT22;48506;48.202;16.274;2023-11-19T15:44:30;8.70;99.90
49124;DHT22;48506;48.202;16.274;2023-11-19T15:46:56;8.70;99.90
49124;DHT22;48506;48.202;16.274;2023-11-19T15:49:22;8.60;99.90
49124;DHT22;48506;48.202;16.274;2023-11-19T15:51:48;8.50;99.90
49124;DHT22;48506;48.202;16.274;2023-11-19T15:54:14;8.40;99.90
49124;DHT22;48506;48.202;16.274;2023-11-19T15:56:41;8.40;99.90
49124;DHT22;48506;48.202;16.274;2023-11-19T15:59:07;8.30;99.90
49124;DHT22;48506;48.202;16.274;2023-11-19T16:01:33;8.30;99.90
49124;DHT22;48506;48.202;16.274;2023-11-19T16:03:59;8.30;99.90
49124;DHT22;48506;48.202;16.274;2023-11-19T16:06:26;8.20;99.90
49124;DHT22;48506;48.202;16.274;2023-11-19T16:08:52;8.10;99.90